sensor_id;sensor_type;location;lat;lon;timestamp;P1;durP1;ratioP1;P2;durP2;ratioP2
5295;SDS011;2670;42.720;23.336;2022-12-18T00:01:56;10.90;;;6.27;;
5295;SDS011;2670;42.720;23.336;2022-12-18T00:04:23;11.20;;;6.93;;
5295;SDS011;2670;42.720;23.336;2022-12-18T00:06:50;10.30;;;7.20;;
5295;SDS011;2670;42.720;23.336;2022-12-18T00:09:16;13.37;;;7.70;;
5295;SDS011;2670;42.720;23.336;2022-12-18T00:11:44;12.10;;;7.80;;
5295;SDS011;2670;42.720;23.336;2022-12-18T00:14:11;16.30;;;8.53;;
5295;SDS011;2670;42.720;23.336;2022-12-18T00:16:38;10.67;;;6.43;;
5295;SDS011;2670;42.720;23.336;2022-12-18T00:19:05;18.00;;;7.23;;
5295;SDS011;2670;42.720;23.336;2022-12-18T00:21:32;12.63;;;6.77;;
5295;SDS011;2670;42.720;23.336;2022-12-18T00:23:59;12.57;;;7.70;;
5295;SDS011;2670;42.720;23.336;2022-12-18T00:26:26;11.50;;;6.50;;
5295;SDS011;2670;42.720;23.336;2022-12-18T00:28:55;14.23;;;7.53;;
5295;SDS011;2670;42.720;23.336;2022-12-18T00:31:24;14.07;;;7.80;;
5295;SDS011;2670;42.720;23.336;2022-12-18T00:33:50;13.50;;;7.53;;
5295;SDS011;2670;42.720;23.336;2022-12-18T00:36:18;12.60;;;6.60;;
5295;SDS011;2670;42.720;23.336;2022-12-18T00:38:44;13.40;;;7.93;;
5295;SDS011;2670;42.720;23.336;2022-12-18T00:41:12;14.57;;;7.87;;
5295;SDS011;2670;42.720;23.336;2022-12-18T00:43:38;16.50;;;7.63;;
5295;SDS011;2670;42.720;23.336;2022-12-18T00:46:05;15.63;;;9.40;;
5295;SDS011;2670;42.720;23.336;2022-12-18T00:48:32;13.07;;;8.03;;
5295;SDS011;2670;42.720;23.336;2022-12-18T00:50:58;16.47;;;8.10;;
5295;SDS011;2670;42.720;23.336;2022-12-18T00:53:25;14.37;;;8.50;;
5295;SDS011;2670;42.720;23.336;2022-12-18T00:55:51;16.03;;;7.90;;
5295;SDS011;2670;42.720;23.336;2022-12-18T00:58:18;14.37;;;6.90;;
5295;SDS011;2670;42.720;23.336;2022-12-18T01:00:44;15.20;;;8.13;;
5295;SDS011;2670;42.720;23.336;2022-12-18T01:03:13;15.30;;;8.60;;
5295;SDS011;2670;42.720;23.336;2022-12-18T01:05:40;13.73;;;7.47;;
5295;SDS011;2670;42.720;23.336;2022-12-18T01:08:07;14.80;;;7.60;;
5295;SDS011;2670;42.720;23.336;2022-12-18T01:10:33;26.13;;;9.20;;
5295;SDS011;2670;42.720;23.336;2022-12-18T01:13:00;16.73;;;9.70;;
5295;SDS011;2670;42.720;23.336;2022-12-18T01:15:26;12.13;;;7.70;;
5295;SDS011;2670;42.720;23.336;2022-12-18T01:17:53;13.57;;;8.13;;
5295;SDS011;2670;42.720;23.336;2022-12-18T01:20:20;17.53;;;9.70;;
5295;SDS011;2670;42.720;23.336;2022-12-18T01:22:47;13.50;;;9.00;;
5295;SDS011;2670;42.720;23.336;2022-12-18T01:25:13;15.30;;;8.40;;
5295;SDS011;2670;42.720;23.336;2022-12-18T01:27:40;16.00;;;8.50;;
5295;SDS011;2670;42.720;23.336;2022-12-18T01:30:07;17.30;;;8.23;;
5295;SDS011;2670;42.720;23.336;2022-12-18T01:32:33;13.77;;;8.40;;
5295;SDS011;2670;42.720;23.336;2022-12-18T01:35:00;15.47;;;7.67;;
5295;SDS011;2670;42.720;23.336;2022-12-18T01:37:27;14.07;;;8.83;;
5295;SDS011;2670;42.720;23.336;2022-12-18T01:39:54;12.13;;;7.10;;
5295;SDS011;2670;42.720;23.336;2022-12-18T01:42:21;14.23;;;8.17;;
5295;SDS011;2670;42.720;23.336;2022-12-18T01:44:54;14.80;;;7.40;;
5295;SDS011;2670;42.720;23.336;2022-12-18T01:47:21;17.30;;;9.10;;
5295;SDS011;2670;42.720;23.336;2022-12-18T01:49:50;11.83;;;7.20;;
5295;SDS011;2670;42.720;23.336;2022-12-18T01:52:17;15.90;;;8.67;;
5295;SDS011;2670;42.720;23.336;2022-12-18T01:54:45;14.83;;;9.17;;
5295;SDS011;2670;42.720;23.336;2022-12-18T01:57:12;11.53;;;7.47;;
5295;SDS011;2670;42.720;23.336;2022-12-18T01:59:39;14.13;;;7.97;;
5295;SDS011;2670;42.720;23.336;2022-12-18T02:02:06;14.73;;;9.00;;
5295;SDS011;2670;42.720;23.336;2022-12-18T02:04:33;15.60;;;9.43;;
5295;SDS011;2670;42.720;23.336;2022-12-18T02:07:07;15.10;;;8.80;;
5295;SDS011;2670;42.720;23.336;2022-12-18T02:09:37;13.97;;;8.33;;
5295;SDS011;2670;42.720;23.336;2022-12-18T02:12:10;8.73;;;5.83;;
5295;SDS011;2670;42.720;23.336;2022-12-18T02:14:40;15.07;;;8.10;;
5295;SDS011;2670;42.720;23.336;2022-12-18T02:17:11;12.20;;;8.10;;
5295;SDS011;2670;42.720;23.336;2022-12-18T02:19:44;20.30;;;8.33;;
5295;SDS011;2670;42.720;23.336;2022-12-18T02:22:20;15.30;;;7.53;;
5295;SDS011;2670;42.720;23.336;2022-12-18T02:24:54;12.97;;;7.50;;
5295;SDS011;2670;42.720;23.336;2022-12-18T02:27:24;12.50;;;7.73;;
5295;SDS011;2670;42.720;23.336;2022-12-18T02:29:52;10.40;;;6.87;;
5295;SDS011;2670;42.720;23.336;2022-12-18T02:32:21;10.87;;;7.13;;
5295;SDS011;2670;42.720;23.336;2022-12-18T02:34:50;13.97;;;6.90;;
5295;SDS011;2670;42.720;23.336;2022-12-18T02:37:17;13.00;;;6.37;;
5295;SDS011;2670;42.720;23.336;2022-12-18T02:39:44;10.83;;;6.90;;
5295;SDS011;2670;42.720;23.336;2022-12-18T02:42:12;15.47;;;6.13;;
5295;SDS011;2670;42.720;23.336;2022-12-18T02:44:44;11.73;;;6.27;;
5295;SDS011;2670;42.720;23.336;2022-12-18T02:47:10;10.23;;;7.33;;
5295;SDS011;2670;42.720;23.336;2022-12-18T02:49:40;9.67;;;6.23;;
5295;SDS011;2670;42.720;23.336;2022-12-18T02:52:12;10.50;;;6.67;;
5295;SDS011;2670;42.720;23.336;2022-12-18T02:54:46;11.83;;;7.10;;
5295;SDS011;2670;42.720;23.336;2022-12-18T02:57:17;10.33;;;6.03;;
5295;SDS011;2670;42.720;23.336;2022-12-18T02:59:49;9.53;;;5.90;;
5295;SDS011;2670;42.720;23.336;2022-12-18T03:02:20;10.73;;;6.57;;
5295;SDS011;2670;42.720;23.336;2022-12-18T03:04:47;12.33;;;7.30;;
5295;SDS011;2670;42.720;23.336;2022-12-18T03:07:16;16.27;;;8.13;;
5295;SDS011;2670;42.720;23.336;2022-12-18T03:09:46;8.23;;;6.10;;
5295;SDS011;2670;42.720;23.336;2022-12-18T03:12:15;11.53;;;7.30;;
5295;SDS011;2670;42.720;23.336;2022-12-18T03:14:52;14.00;;;6.63;;
5295;SDS011;2670;42.720;23.336;2022-12-18T03:17:20;12.00;;;7.43;;
5295;SDS011;2670;42.720;23.336;2022-12-18T03:19:49;12.00;;;7.40;;
5295;SDS011;2670;42.720;23.336;2022-12-18T03:22:17;10.80;;;7.10;;
5295;SDS011;2670;42.720;23.336;2022-12-18T03:24:44;15.57;;;9.40;;
5295;SDS011;2670;42.720;23.336;2022-12-18T03:27:13;12.93;;;7.13;;
5295;SDS011;2670;42.720;23.336;2022-12-18T03:29:40;11.13;;;6.83;;
5295;SDS011;2670;42.720;23.336;2022-12-18T03:32:11;8.70;;;6.53;;
5295;SDS011;2670;42.720;23.336;2022-12-18T03:34:39;15.13;;;6.90;;
5295;SDS011;2670;42.720;23.336;2022-12-18T03:37:06;11.67;;;5.90;;
5295;SDS011;2670;42.720;23.336;2022-12-18T03:39:33;13.77;;;6.90;;
5295;SDS011;2670;42.720;23.336;2022-12-18T03:42:01;13.10;;;6.80;;
5295;SDS011;2670;42.720;23.336;2022-12-18T03:44:31;12.43;;;5.93;;
5295;SDS011;2670;42.720;23.336;2022-12-18T03:47:03;12.83;;;7.60;;
5295;SDS011;2670;42.720;23.336;2022-12-18T03:49:32;11.93;;;6.40;;
5295;SDS011;2670;42.720;23.336;2022-12-18T03:52:02;11.30;;;6.67;;
5295;SDS011;2670;42.720;23.336;2022-12-18T03:54:29;10.50;;;6.50;;
5295;SDS011;2670;42.720;23.336;2022-12-18T03:56:58;9.33;;;5.70;;
5295;SDS011;2670;42.720;23.336;2022-12-18T03:59:26;8.63;;;4.67;;
5295;SDS011;2670;42.720;23.336;2022-12-18T04:01:53;13.80;;;5.67;;
5295;SDS011;2670;42.720;23.336;2022-12-18T04:04:21;13.87;;;7.53;;
5295;SDS011;2670;42.720;23.336;2022-12-18T04:06:49;11.83;;;7.13;;
5295;SDS011;2670;42.720;23.336;2022-12-18T04:09:16;16.33;;;8.07;;
5295;SDS011;2670;42.720;23.336;2022-12-18T04:11:43;14.93;;;7.33;;
5295;SDS011;2670;42.720;23.336;2022-12-18T04:14:09;20.30;;;8.93;;
5295;SDS011;2670;42.720;23.336;2022-12-18T04:16:36;17.03;;;7.30;;
5295;SDS011;2670;42.720;23.336;2022-12-18T04:19:02;13.90;;;6.83;;
5295;SDS011;2670;42.720;23.336;2022-12-18T04:21:29;14.60;;;9.00;;
5295;SDS011;2670;42.720;23.336;2022-12-18T04:23:57;13.60;;;8.10;;
5295;SDS011;2670;42.720;23.336;2022-12-18T04:26:23;15.00;;;8.27;;
5295;SDS011;2670;42.720;23.336;2022-12-18T04:28:50;13.53;;;8.87;;
5295;SDS011;2670;42.720;23.336;2022-12-18T04:31:16;17.07;;;9.60;;
5295;SDS011;2670;42.720;23.336;2022-12-18T04:33:43;15.73;;;8.57;;
5295;SDS011;2670;42.720;23.336;2022-12-18T04:36:09;16.40;;;8.63;;
5295;SDS011;2670;42.720;23.336;2022-12-18T04:38:37;15.70;;;8.70;;
5295;SDS011;2670;42.720;23.336;2022-12-18T04:41:05;18.97;;;8.97;;
5295;SDS011;2670;42.720;23.336;2022-12-18T04:43:32;9.87;;;6.80;;
5295;SDS011;2670;42.720;23.336;2022-12-18T04:46:02;15.37;;;8.20;;
5295;SDS011;2670;42.720;23.336;2022-12-18T04:48:29;21.07;;;10.60;;
5295;SDS011;2670;42.720;23.336;2022-12-18T04:50:55;22.70;;;10.00;;
5295;SDS011;2670;42.720;23.336;2022-12-18T04:53:22;16.30;;;9.10;;
5295;SDS011;2670;42.720;23.336;2022-12-18T04:55:48;21.43;;;10.10;;
5295;SDS011;2670;42.720;23.336;2022-12-18T04:58:16;22.03;;;10.43;;
5295;SDS011;2670;42.720;23.336;2022-12-18T05:00:42;17.57;;;9.03;;
5295;SDS011;2670;42.720;23.336;2022-12-18T05:03:09;19.70;;;8.17;;
5295;SDS011;2670;42.720;23.336;2022-12-18T05:05:35;20.30;;;10.57;;
5295;SDS011;2670;42.720;23.336;2022-12-18T05:08:02;17.93;;;9.87;;
5295;SDS011;2670;42.720;23.336;2022-12-18T05:10:28;21.47;;;12.43;;
5295;SDS011;2670;42.720;23.336;2022-12-18T05:12:55;16.87;;;8.10;;
5295;SDS011;2670;42.720;23.336;2022-12-18T05:15:26;17.73;;;9.13;;
5295;SDS011;2670;42.720;23.336;2022-12-18T05:17:52;18.37;;;10.13;;
5295;SDS011;2670;42.720;23.336;2022-12-18T05:20:19;19.13;;;10.47;;
5295;SDS011;2670;42.720;23.336;2022-12-18T05:22:45;18.90;;;8.50;;
5295;SDS011;2670;42.720;23.336;2022-12-18T05:25:12;23.27;;;11.80;;
5295;SDS011;2670;42.720;23.336;2022-12-18T05:27:38;21.40;;;10.70;;
5295;SDS011;2670;42.720;23.336;2022-12-18T05:30:05;19.70;;;10.40;;
5295;SDS011;2670;42.720;23.336;2022-12-18T05:32:33;21.60;;;11.03;;
5295;SDS011;2670;42.720;23.336;2022-12-18T05:34:59;18.90;;;9.00;;
5295;SDS011;2670;42.720;23.336;2022-12-18T05:37:26;24.97;;;10.87;;
5295;SDS011;2670;42.720;23.336;2022-12-18T05:39:52;21.50;;;11.33;;
5295;SDS011;2670;42.720;23.336;2022-12-18T05:42:19;22.50;;;10.63;;
5295;SDS011;2670;42.720;23.336;2022-12-18T05:44:46;25.60;;;12.03;;
5295;SDS011;2670;42.720;23.336;2022-12-18T05:47:12;21.37;;;9.80;;
5295;SDS011;2670;42.720;23.336;2022-12-18T05:49:40;22.70;;;11.00;;
5295;SDS011;2670;42.720;23.336;2022-12-18T05:52:06;13.07;;;6.23;;
5295;SDS011;2670;42.720;23.336;2022-12-18T05:54:33;25.43;;;11.93;;
5295;SDS011;2670;42.720;23.336;2022-12-18T05:57:00;21.63;;;11.90;;
5295;SDS011;2670;42.720;23.336;2022-12-18T05:59:26;21.23;;;10.97;;
5295;SDS011;2670;42.720;23.336;2022-12-18T06:01:53;24.53;;;11.03;;
5295;SDS011;2670;42.720;23.336;2022-12-18T06:04:19;25.63;;;12.50;;
5295;SDS011;2670;42.720;23.336;2022-12-18T06:06:47;24.40;;;11.73;;
5295;SDS011;2670;42.720;23.336;2022-12-18T06:09:14;20.60;;;11.10;;
5295;SDS011;2670;42.720;23.336;2022-12-18T06:11:40;20.10;;;10.00;;
5295;SDS011;2670;42.720;23.336;2022-12-18T06:14:06;23.00;;;10.87;;
5295;SDS011;2670;42.720;23.336;2022-12-18T06:16:33;18.57;;;9.27;;
5295;SDS011;2670;42.720;23.336;2022-12-18T06:19:00;30.33;;;14.90;;
5295;SDS011;2670;42.720;23.336;2022-12-18T06:21:28;21.10;;;10.77;;
5295;SDS011;2670;42.720;23.336;2022-12-18T06:23:56;19.30;;;9.50;;
5295;SDS011;2670;42.720;23.336;2022-12-18T06:26:22;25.87;;;12.80;;
5295;SDS011;2670;42.720;23.336;2022-12-18T06:28:49;17.83;;;8.50;;
5295;SDS011;2670;42.720;23.336;2022-12-18T06:31:15;12.70;;;6.30;;
5295;SDS011;2670;42.720;23.336;2022-12-18T06:33:41;22.07;;;11.03;;
5295;SDS011;2670;42.720;23.336;2022-12-18T06:36:09;21.77;;;9.13;;
5295;SDS011;2670;42.720;23.336;2022-12-18T06:38:37;24.10;;;11.23;;
5295;SDS011;2670;42.720;23.336;2022-12-18T06:41:07;26.17;;;11.07;;
5295;SDS011;2670;42.720;23.336;2022-12-18T06:43:34;20.07;;;11.23;;
5295;SDS011;2670;42.720;23.336;2022-12-18T06:46:01;20.10;;;11.03;;
5295;SDS011;2670;42.720;23.336;2022-12-18T06:48:28;22.63;;;13.63;;
5295;SDS011;2670;42.720;23.336;2022-12-18T06:50:54;25.40;;;13.60;;
5295;SDS011;2670;42.720;23.336;2022-12-18T06:53:21;24.40;;;12.43;;
5295;SDS011;2670;42.720;23.336;2022-12-18T06:55:47;24.90;;;10.53;;
5295;SDS011;2670;42.720;23.336;2022-12-18T06:58:15;21.67;;;11.20;;
5295;SDS011;2670;42.720;23.336;2022-12-18T07:00:42;28.33;;;13.00;;
5295;SDS011;2670;42.720;23.336;2022-12-18T07:03:08;28.37;;;11.83;;
5295;SDS011;2670;42.720;23.336;2022-12-18T07:05:39;22.80;;;11.63;;
5295;SDS011;2670;42.720;23.336;2022-12-18T07:08:05;22.03;;;11.60;;
5295;SDS011;2670;42.720;23.336;2022-12-18T07:10:32;24.40;;;12.20;;
5295;SDS011;2670;42.720;23.336;2022-12-18T07:12:58;21.80;;;10.57;;
5295;SDS011;2670;42.720;23.336;2022-12-18T07:15:26;22.57;;;11.33;;
5295;SDS011;2670;42.720;23.336;2022-12-18T07:17:53;16.20;;;8.60;;
5295;SDS011;2670;42.720;23.336;2022-12-18T07:20:19;22.60;;;11.27;;
5295;SDS011;2670;42.720;23.336;2022-12-18T07:22:45;21.30;;;10.47;;
5295;SDS011;2670;42.720;23.336;2022-12-18T07:25:12;21.70;;;9.03;;
5295;SDS011;2670;42.720;23.336;2022-12-18T07:27:38;17.93;;;9.57;;
5295;SDS011;2670;42.720;23.336;2022-12-18T07:30:05;20.17;;;10.50;;
5295;SDS011;2670;42.720;23.336;2022-12-18T07:32:33;20.07;;;9.30;;
5295;SDS011;2670;42.720;23.336;2022-12-18T07:35:00;19.27;;;10.57;;
5295;SDS011;2670;42.720;23.336;2022-12-18T07:37:27;18.40;;;9.60;;
5295;SDS011;2670;42.720;23.336;2022-12-18T07:39:53;22.73;;;9.80;;
5295;SDS011;2670;42.720;23.336;2022-12-18T07:42:19;22.87;;;10.80;;
5295;SDS011;2670;42.720;23.336;2022-12-18T07:44:58;21.50;;;11.33;;
5295;SDS011;2670;42.720;23.336;2022-12-18T07:47:24;15.60;;;8.50;;
5295;SDS011;2670;42.720;23.336;2022-12-18T07:49:52;28.90;;;10.07;;
5295;SDS011;2670;42.720;23.336;2022-12-18T07:52:19;15.77;;;9.13;;
5295;SDS011;2670;42.720;23.336;2022-12-18T07:54:46;19.10;;;10.93;;
5295;SDS011;2670;42.720;23.336;2022-12-18T07:57:15;35.97;;;14.97;;
5295;SDS011;2670;42.720;23.336;2022-12-18T07:59:41;28.30;;;12.60;;
5295;SDS011;2670;42.720;23.336;2022-12-18T08:02:08;26.80;;;11.57;;
5295;SDS011;2670;42.720;23.336;2022-12-18T08:04:34;25.67;;;12.80;;
5295;SDS011;2670;42.720;23.336;2022-12-18T08:07:02;25.00;;;12.00;;
5295;SDS011;2670;42.720;23.336;2022-12-18T08:09:29;20.87;;;10.53;;
5295;SDS011;2670;42.720;23.336;2022-12-18T08:11:55;25.00;;;11.37;;
5295;SDS011;2670;42.720;23.336;2022-12-18T08:14:23;27.83;;;13.20;;
5295;SDS011;2670;42.720;23.336;2022-12-18T08:16:49;26.73;;;13.17;;
5295;SDS011;2670;42.720;23.336;2022-12-18T08:19:16;27.27;;;13.50;;
5295;SDS011;2670;42.720;23.336;2022-12-18T08:21:42;21.77;;;10.90;;
5295;SDS011;2670;42.720;23.336;2022-12-18T08:24:10;29.63;;;12.53;;
5295;SDS011;2670;42.720;23.336;2022-12-18T08:26:37;22.33;;;12.27;;
5295;SDS011;2670;42.720;23.336;2022-12-18T08:29:03;11.03;;;5.67;;
5295;SDS011;2670;42.720;23.336;2022-12-18T08:31:30;24.53;;;11.23;;
5295;SDS011;2670;42.720;23.336;2022-12-18T08:33:57;30.83;;;12.87;;
5295;SDS011;2670;42.720;23.336;2022-12-18T08:36:24;24.67;;;12.13;;
5295;SDS011;2670;42.720;23.336;2022-12-18T08:38:51;21.97;;;12.07;;
5295;SDS011;2670;42.720;23.336;2022-12-18T08:41:19;22.60;;;11.97;;
5295;SDS011;2670;42.720;23.336;2022-12-18T08:43:46;26.00;;;11.90;;
5295;SDS011;2670;42.720;23.336;2022-12-18T08:46:32;23.50;;;12.10;;
5295;SDS011;2670;42.720;23.336;2022-12-18T08:48:58;24.90;;;11.40;;
5295;SDS011;2670;42.720;23.336;2022-12-18T08:51:25;23.37;;;11.00;;
5295;SDS011;2670;42.720;23.336;2022-12-18T08:53:51;21.83;;;10.43;;
5295;SDS011;2670;42.720;23.336;2022-12-18T08:56:19;22.67;;;10.80;;
5295;SDS011;2670;42.720;23.336;2022-12-18T08:58:46;22.40;;;11.10;;
5295;SDS011;2670;42.720;23.336;2022-12-18T09:01:12;24.00;;;12.13;;
5295;SDS011;2670;42.720;23.336;2022-12-18T09:03:39;27.50;;;11.80;;
5295;SDS011;2670;42.720;23.336;2022-12-18T09:06:06;24.97;;;12.27;;
5295;SDS011;2670;42.720;23.336;2022-12-18T09:08:32;25.57;;;11.13;;
5295;SDS011;2670;42.720;23.336;2022-12-18T09:10:59;31.43;;;13.20;;
5295;SDS011;2670;42.720;23.336;2022-12-18T09:13:27;25.03;;;12.83;;
5295;SDS011;2670;42.720;23.336;2022-12-18T09:15:53;27.30;;;12.60;;
5295;SDS011;2670;42.720;23.336;2022-12-18T09:18:21;25.07;;;11.50;;
5295;SDS011;2670;42.720;23.336;2022-12-18T09:20:47;62.80;;;27.60;;
5295;SDS011;2670;42.720;23.336;2022-12-18T09:23:15;36.93;;;19.83;;
5295;SDS011;2670;42.720;23.336;2022-12-18T09:25:41;23.70;;;13.00;;
5295;SDS011;2670;42.720;23.336;2022-12-18T09:28:10;21.60;;;10.90;;
5295;SDS011;2670;42.720;23.336;2022-12-18T09:30:38;37.17;;;19.00;;
5295;SDS011;2670;42.720;23.336;2022-12-18T09:33:05;32.83;;;14.73;;
5295;SDS011;2670;42.720;23.336;2022-12-18T09:35:31;33.17;;;17.40;;
5295;SDS011;2670;42.720;23.336;2022-12-18T09:37:58;25.60;;;13.53;;
5295;SDS011;2670;42.720;23.336;2022-12-18T09:40:25;35.07;;;17.43;;
5295;SDS011;2670;42.720;23.336;2022-12-18T09:42:53;39.17;;;20.33;;
5295;SDS011;2670;42.720;23.336;2022-12-18T09:45:21;22.60;;;11.80;;
5295;SDS011;2670;42.720;23.336;2022-12-18T09:47:49;30.43;;;14.60;;
5295;SDS011;2670;42.720;23.336;2022-12-18T09:50:19;20.03;;;11.80;;
5295;SDS011;2670;42.720;23.336;2022-12-18T09:52:48;21.73;;;11.20;;
5295;SDS011;2670;42.720;23.336;2022-12-18T09:55:16;25.73;;;11.50;;
5295;SDS011;2670;42.720;23.336;2022-12-18T09:57:47;23.90;;;12.93;;
5295;SDS011;2670;42.720;23.336;2022-12-18T10:00:16;21.30;;;10.60;;
5295;SDS011;2670;42.720;23.336;2022-12-18T10:02:43;22.70;;;11.33;;
5295;SDS011;2670;42.720;23.336;2022-12-18T10:05:12;16.47;;;7.70;;
5295;SDS011;2670;42.720;23.336;2022-12-18T10:07:42;18.00;;;9.90;;
5295;SDS011;2670;42.720;23.336;2022-12-18T10:10:14;23.70;;;11.60;;
5295;SDS011;2670;42.720;23.336;2022-12-18T10:12:46;29.10;;;13.00;;
5295;SDS011;2670;42.720;23.336;2022-12-18T10:15:18;26.50;;;12.77;;
5295;SDS011;2670;42.720;23.336;2022-12-18T10:17:50;23.17;;;10.90;;
5295;SDS011;2670;42.720;23.336;2022-12-18T10:20:20;23.40;;;13.10;;
5295;SDS011;2670;42.720;23.336;2022-12-18T10:22:52;48.17;;;21.50;;
5295;SDS011;2670;42.720;23.336;2022-12-18T10:25:22;17.80;;;9.33;;
5295;SDS011;2670;42.720;23.336;2022-12-18T10:27:51;33.27;;;16.13;;
5295;SDS011;2670;42.720;23.336;2022-12-18T10:30:19;27.50;;;10.63;;
5295;SDS011;2670;42.720;23.336;2022-12-18T10:32:46;21.33;;;9.70;;
5295;SDS011;2670;42.720;23.336;2022-12-18T10:35:15;21.33;;;9.30;;
5295;SDS011;2670;42.720;23.336;2022-12-18T10:40:25;26.07;;;11.60;;
5295;SDS011;2670;42.720;23.336;2022-12-18T10:43:02;25.27;;;11.10;;
5295;SDS011;2670;42.720;23.336;2022-12-18T10:45:29;32.87;;;12.67;;
5295;SDS011;2670;42.720;23.336;2022-12-18T10:47:56;28.40;;;14.20;;
5295;SDS011;2670;42.720;23.336;2022-12-18T10:50:24;25.10;;;10.90;;
5295;SDS011;2670;42.720;23.336;2022-12-18T10:52:55;21.63;;;11.70;;
5295;SDS011;2670;42.720;23.336;2022-12-18T10:55:23;35.57;;;15.50;;
5295;SDS011;2670;42.720;23.336;2022-12-18T10:57:52;25.77;;;10.30;;
5295;SDS011;2670;42.720;23.336;2022-12-18T11:00:20;23.67;;;11.00;;
5295;SDS011;2670;42.720;23.336;2022-12-18T11:02:47;21.10;;;11.37;;
5295;SDS011;2670;42.720;23.336;2022-12-18T11:05:24;33.97;;;16.10;;
5295;SDS011;2670;42.720;23.336;2022-12-18T11:07:51;34.97;;;17.10;;
5295;SDS011;2670;42.720;23.336;2022-12-18T11:10:19;25.33;;;11.40;;
5295;SDS011;2670;42.720;23.336;2022-12-18T11:12:47;31.97;;;13.57;;
5295;SDS011;2670;42.720;23.336;2022-12-18T11:15:16;21.23;;;9.03;;
5295;SDS011;2670;42.720;23.336;2022-12-18T11:17:46;20.87;;;10.07;;
5295;SDS011;2670;42.720;23.336;2022-12-18T11:20:19;22.83;;;9.60;;
5295;SDS011;2670;42.720;23.336;2022-12-18T11:22:54;20.07;;;10.13;;
5295;SDS011;2670;42.720;23.336;2022-12-18T11:25:22;12.57;;;6.90;;
5295;SDS011;2670;42.720;23.336;2022-12-18T11:27:49;26.30;;;12.03;;
5295;SDS011;2670;42.720;23.336;2022-12-18T11:30:22;18.50;;;10.70;;
5295;SDS011;2670;42.720;23.336;2022-12-18T11:32:49;25.97;;;12.33;;
5295;SDS011;2670;42.720;23.336;2022-12-18T11:35:19;27.73;;;12.70;;
5295;SDS011;2670;42.720;23.336;2022-12-18T11:37:48;27.30;;;13.03;;
5295;SDS011;2670;42.720;23.336;2022-12-18T11:40:17;24.00;;;11.30;;
5295;SDS011;2670;42.720;23.336;2022-12-18T11:42:45;27.13;;;11.17;;
5295;SDS011;2670;42.720;23.336;2022-12-18T11:48:05;30.87;;;13.27;;
5295;SDS011;2670;42.720;23.336;2022-12-18T11:50:40;25.40;;;12.07;;
5295;SDS011;2670;42.720;23.336;2022-12-18T11:53:09;34.27;;;14.90;;
5295;SDS011;2670;42.720;23.336;2022-12-18T11:55:37;28.90;;;12.77;;
5295;SDS011;2670;42.720;23.336;2022-12-18T11:58:07;21.67;;;10.87;;
5295;SDS011;2670;42.720;23.336;2022-12-18T12:00:36;32.20;;;14.83;;
5295;SDS011;2670;42.720;23.336;2022-12-18T12:03:16;45.97;;;19.40;;
5295;SDS011;2670;42.720;23.336;2022-12-18T12:05:48;25.37;;;12.53;;
5295;SDS011;2670;42.720;23.336;2022-12-18T12:08:17;35.90;;;14.23;;
5295;SDS011;2670;42.720;23.336;2022-12-18T12:10:51;30.77;;;14.37;;
5295;SDS011;2670;42.720;23.336;2022-12-18T12:13:25;25.00;;;12.13;;
5295;SDS011;2670;42.720;23.336;2022-12-18T12:15:58;18.50;;;10.00;;
5295;SDS011;2670;42.720;23.336;2022-12-18T12:18:31;24.97;;;11.83;;
5295;SDS011;2670;42.720;23.336;2022-12-18T12:21:02;37.27;;;18.60;;
5295;SDS011;2670;42.720;23.336;2022-12-18T12:23:34;27.83;;;12.53;;
5295;SDS011;2670;42.720;23.336;2022-12-18T12:26:06;33.07;;;15.50;;
5295;SDS011;2670;42.720;23.336;2022-12-18T12:28:41;69.53;;;27.43;;
5295;SDS011;2670;42.720;23.336;2022-12-18T12:31:12;23.20;;;11.20;;
5295;SDS011;2670;42.720;23.336;2022-12-18T12:33:43;23.60;;;12.77;;
5295;SDS011;2670;42.720;23.336;2022-12-18T12:36:14;27.67;;;10.70;;
5295;SDS011;2670;42.720;23.336;2022-12-18T12:38:42;28.10;;;13.00;;
5295;SDS011;2670;42.720;23.336;2022-12-18T12:41:12;25.20;;;12.77;;
5295;SDS011;2670;42.720;23.336;2022-12-18T12:43:52;25.23;;;12.13;;
5295;SDS011;2670;42.720;23.336;2022-12-18T12:46:22;27.17;;;13.07;;
5295;SDS011;2670;42.720;23.336;2022-12-18T12:48:51;26.30;;;12.00;;
5295;SDS011;2670;42.720;23.336;2022-12-18T12:51:20;28.17;;;15.93;;
5295;SDS011;2670;42.720;23.336;2022-12-18T12:53:48;37.77;;;17.77;;
5295;SDS011;2670;42.720;23.336;2022-12-18T12:56:15;32.53;;;17.60;;
5295;SDS011;2670;42.720;23.336;2022-12-18T12:58:46;24.53;;;12.40;;
5295;SDS011;2670;42.720;23.336;2022-12-18T13:01:17;28.47;;;13.77;;
5295;SDS011;2670;42.720;23.336;2022-12-18T13:03:48;24.43;;;12.20;;
5295;SDS011;2670;42.720;23.336;2022-12-18T13:06:18;24.30;;;12.00;;
5295;SDS011;2670;42.720;23.336;2022-12-18T13:08:53;28.83;;;13.63;;
5295;SDS011;2670;42.720;23.336;2022-12-18T13:11:30;27.70;;;12.63;;
5295;SDS011;2670;42.720;23.336;2022-12-18T13:14:20;28.63;;;14.17;;
5295;SDS011;2670;42.720;23.336;2022-12-18T13:16:49;32.90;;;14.93;;
5295;SDS011;2670;42.720;23.336;2022-12-18T13:19:21;33.80;;;16.13;;
5295;SDS011;2670;42.720;23.336;2022-12-18T13:21:53;33.83;;;16.00;;
5295;SDS011;2670;42.720;23.336;2022-12-18T13:24:22;31.67;;;13.80;;
5295;SDS011;2670;42.720;23.336;2022-12-18T13:26:49;25.93;;;9.77;;
5295;SDS011;2670;42.720;23.336;2022-12-18T13:29:40;24.73;;;12.27;;
5295;SDS011;2670;42.720;23.336;2022-12-18T13:32:18;23.63;;;11.40;;
5295;SDS011;2670;42.720;23.336;2022-12-18T13:34:45;23.50;;;11.13;;
5295;SDS011;2670;42.720;23.336;2022-12-18T13:39:58;24.00;;;12.60;;
5295;SDS011;2670;42.720;23.336;2022-12-18T13:42:31;21.83;;;11.13;;
5295;SDS011;2670;42.720;23.336;2022-12-18T13:45:38;22.97;;;11.10;;
5295;SDS011;2670;42.720;23.336;2022-12-18T13:48:10;36.77;;;15.80;;
5295;SDS011;2670;42.720;23.336;2022-12-18T13:50:39;24.07;;;11.80;;
5295;SDS011;2670;42.720;23.336;2022-12-18T13:53:06;36.80;;;17.47;;
5295;SDS011;2670;42.720;23.336;2022-12-18T13:55:34;26.70;;;13.23;;
5295;SDS011;2670;42.720;23.336;2022-12-18T13:58:03;53.80;;;20.13;;
5295;SDS011;2670;42.720;23.336;2022-12-18T14:00:30;28.67;;;12.97;;
5295;SDS011;2670;42.720;23.336;2022-12-18T14:02:57;28.30;;;14.37;;
5295;SDS011;2670;42.720;23.336;2022-12-18T14:05:24;48.07;;;23.47;;
5295;SDS011;2670;42.720;23.336;2022-12-18T14:07:51;32.73;;;15.20;;
5295;SDS011;2670;42.720;23.336;2022-12-18T14:10:18;39.13;;;18.00;;
5295;SDS011;2670;42.720;23.336;2022-12-18T14:12:46;69.60;;;25.47;;
5295;SDS011;2670;42.720;23.336;2022-12-18T14:15:23;33.97;;;15.57;;
5295;SDS011;2670;42.720;23.336;2022-12-18T14:17:51;36.00;;;18.03;;
5295;SDS011;2670;42.720;23.336;2022-12-18T14:20:18;32.53;;;13.93;;
5295;SDS011;2670;42.720;23.336;2022-12-18T14:22:44;21.50;;;10.27;;
5295;SDS011;2670;42.720;23.336;2022-12-18T14:25:15;25.27;;;13.47;;
5295;SDS011;2670;42.720;23.336;2022-12-18T14:27:42;28.03;;;12.57;;
5295;SDS011;2670;42.720;23.336;2022-12-18T14:30:24;22.00;;;12.20;;
5295;SDS011;2670;42.720;23.336;2022-12-18T14:32:59;21.70;;;10.53;;
5295;SDS011;2670;42.720;23.336;2022-12-18T14:35:26;24.63;;;10.77;;
5295;SDS011;2670;42.720;23.336;2022-12-18T14:37:53;19.87;;;10.73;;
5295;SDS011;2670;42.720;23.336;2022-12-18T14:40:19;26.63;;;11.07;;
5295;SDS011;2670;42.720;23.336;2022-12-18T14:42:46;25.30;;;12.07;;
5295;SDS011;2670;42.720;23.336;2022-12-18T14:48:01;18.33;;;9.93;;
5295;SDS011;2670;42.720;23.336;2022-12-18T14:50:32;22.40;;;12.03;;
5295;SDS011;2670;42.720;23.336;2022-12-18T14:52:58;18.03;;;10.30;;
5295;SDS011;2670;42.720;23.336;2022-12-18T14:55:25;29.87;;;15.60;;
5295;SDS011;2670;42.720;23.336;2022-12-18T14:57:52;21.73;;;10.63;;
5295;SDS011;2670;42.720;23.336;2022-12-18T15:00:21;18.20;;;8.20;;